Time;durP1;ratioP1;P1;durP2;ratioP2;P2;SDS_P1;SDS_P2;PMS_P1;PMS_P2;Temp;Humidity;BMP_temperature;BMP_pressure;BME280_temperature;BME280_humidity;BME280_pressure;Samples;Min_cycle;Max_cycle;Signal;HPM_P1;HPM_P2
2021/10/30 00:01:09;;;;;;;8.68;5.15;;;;;;;12.41;100.00;100475.63;5256717;28;20390;-68
2021/10/30 00:03:40;;;;;;;5.88;4.75;;;;;;;12.48;100.00;100470.59;5295842;28;20424;-69
2021/10/30 00:06:11;;;;;;;6.25;5.30;;;;;;;12.47;100.00;100466.34;5256464;28;20150;-68
2021/10/30 00:08:43;;;;;;;6.57;5.70;;;;;;;12.50;100.00;100466.84;5258021;28;20037;-69
2021/10/30 00:11:16;;;;;;;8.38;4.72;;;;;;;12.52;100.00;100469.31;5259104;28;20024;-69
2021/10/30 00:13:47;;;;;;;8.05;5.40;;;;;;;12.56;100.00;100468.84;5257217;28;20021;-69
2021/10/30 00:16:19;;;;;;;7.28;5.22;;;;;;;12.55;100.00;100469.84;5256692;28;20029;-69
2021/10/30 00:18:50;;;;;;;7.20;5.22;;;;;;;12.59;100.00;100473.00;5256581;28;20471;-68
2021/10/30 00:21:22;;;;;;;6.95;5.38;;;;;;;12.58;100.00;100468.72;5255679;28;20108;-69
2021/10/30 00:23:53;;;;;;;9.35;5.38;;;;;;;12.61;100.00;100464.00;5261458;28;20100;-69
2021/10/30 00:26:25;;;;;;;7.22;5.68;;;;;;;12.65;100.00;100465.34;5256576;28;20379;-69
2021/10/30 00:28:56;;;;;;;8.63;5.90;;;;;;;12.67;100.00;100441.53;5256279;28;20528;-69
2021/10/30 00:31:27;;;;;;;8.98;5.50;;;;;;;12.62;100.00;100435.91;5254908;28;20640;-68
2021/10/30 00:33:59;;;;;;;6.82;5.32;;;;;;;12.63;100.00;100432.28;5256310;28;20458;-69
2021/10/30 00:36:30;;;;;;;7.60;5.65;;;;;;;12.63;100.00;100435.75;5257192;28;20386;-69
2021/10/30 00:39:02;;;;;;;7.22;5.65;;;;;;;12.60;100.00;100430.78;5263225;28;20025;-68
2021/10/30 00:41:34;;;;;;;8.45;5.97;;;;;;;12.59;100.00;100430.94;5255768;28;20154;-69
2021/10/30 00:44:12;;;;;;;7.20;5.35;;;;;;;12.66;100.00;100424.09;5257565;28;20613;-69
2021/10/30 00:46:46;;;;;;;8.32;5.72;;;;;;;12.59;100.00;100425.69;5254336;28;20474;-68
2021/10/30 00:49:19;;;;;;;7.93;5.63;;;;;;;12.53;100.00;100407.91;5255568;28;20029;-68
2021/10/30 00:51:54;;;;;;;6.13;5.18;;;;;;;12.52;100.00;100429.91;5255343;28;20052;-69
2021/10/30 00:54:26;;;;;;;7.60;5.40;;;;;;;12.47;100.00;100427.75;5254890;28;20033;-68
2021/10/30 00:56:59;;;;;;;8.40;5.93;;;;;;;12.48;100.00;100425.94;5261513;28;20425;-68
2021/10/30 00:59:30;;;;;;;;;;;;;;;12.95;100.00;100431.66;5257043;28;20471;-69
2021/10/30 01:02:02;;;;;;;9.20;5.90;;;;;;;12.48;100.00;100416.25;5261392;28;19924;-68
2021/10/30 01:04:33;;;;;;;7.75;5.53;;;;;;;12.47;100.00;100419.88;5253946;28;20045;-69
2021/10/30 01:07:05;;;;;;;7.28;6.18;;;;;;;12.41;100.00;100409.97;5254945;28;20124;-67
2021/10/30 01:09:37;;;;;;;8.23;5.88;;;;;;;12.43;100.00;100417.69;5256573;28;20036;-67
2021/10/30 01:12:09;;;;;;;8.52;6.35;;;;;;;12.38;100.00;100407.63;5253824;28;20025;-68
2021/10/30 01:14:42;;;;;;;8.07;5.60;;;;;;;12.34;100.00;100401.84;5255076;28;20036;-69
2021/10/30 01:17:13;;;;;;;7.28;5.90;;;;;;;12.37;100.00;100412.06;5256276;28;20035;-69
2021/10/30 01:19:44;;;;;;;9.05;5.90;;;;;;;12.35;100.00;100403.53;5287444;28;20033;-68
2021/10/30 01:22:16;;;;;;;8.05;6.05;;;;;;;12.34;100.00;100406.28;5256022;28;20024;-68
2021/10/30 01:24:49;;;;;;;7.63;5.97;;;;;;;12.32;100.00;100401.19;5255817;28;20051;-69
2021/10/30 01:27:21;;;;;;;6.75;5.50;;;;;;;12.33;100.00;100415.16;5258062;28;20021;-69
2021/10/30 01:29:52;;;;;;;8.07;6.10;;;;;;;12.28;100.00;100405.09;5255121;28;20027;-69
2021/10/30 01:32:23;;;;;;;8.00;6.07;;;;;;;12.25;100.00;100399.31;5256202;28;20401;-68
2021/10/30 01:34:55;;;;;;;8.35;6.03;;;;;;;12.28;100.00;100402.47;5260426;28;20099;-69
2021/10/30 01:37:26;;;;;;;10.88;6.03;;;;;;;12.28;100.00;100405.09;5255359;28;20649;-69
2021/10/30 01:39:57;;;;;;;7.50;5.72;;;;;;;12.29;100.00;100393.63;5258419;28;20025;-68
2021/10/30 01:42:29;;;;;;;7.47;5.72;;;;;;;12.32;100.00;100387.25;5260084;28;20804;-69
2021/10/30 01:45:00;;;;;;;9.23;6.22;;;;;;;12.31;100.00;100383.78;5261290;28;20558;-68
2021/10/30 01:47:31;;;;;;;7.45;6.07;;;;;;;12.24;100.00;100374.06;5256078;28;20425;-69
2021/10/30 01:50:03;;;;;;;6.20;5.55;;;;;;;12.30;100.00;100378.69;5259362;28;20032;-68
2021/10/30 01:52:34;;;;;;;9.35;5.70;;;;;;;12.29;100.00;100379.66;5257206;28;20051;-67
2021/10/30 01:55:09;;;;;;;8.43;6.55;;;;;;;12.34;100.00;100372.94;5255484;28;20124;-69
2021/10/30 01:57:41;;;;;;;7.15;6.07;;;;;;;12.30;100.00;100376.03;5256418;28;20436;-69
2021/10/30 02:00:13;;;;;;;7.40;5.70;;;;;;;12.28;100.00;100370.13;5263111;28;20024;-68
2021/10/30 02:02:45;;;;;;;6.65;5.35;;;;;;;12.31;100.00;100362.78;5254825;28;20060;-68
2021/10/30 02:05:17;;;;;;;7.68;6.00;;;;;;;12.29;100.00;100351.59;5254538;28;20029;-68
2021/10/30 02:07:48;;;;;;;9.02;5.95;;;;;;;12.32;100.00;100353.91;5255819;28;20033;-69
2021/10/30 02:10:19;;;;;;;7.70;5.60;;;;;;;12.37;100.00;100348.19;5255884;28;20553;-69
2021/10/30 02:12:51;;;;;;;7.25;5.50;;;;;;;12.40;100.00;100342.63;5254904;28;20033;-68
2021/10/30 02:15:23;;;;;;;7.07;5.63;;;;;;;12.41;100.00;100331.97;5254530;28;20130;-69
2021/10/30 02:17:54;;;;;;;8.38;5.93;;;;;;;12.39;100.00;100333.13;5254932;28;20044;-68
2021/10/30 02:20:25;;;;;;;8.02;5.80;;;;;;;12.42;100.00;100324.91;5254833;28;20021;-69
2021/10/30 02:22:56;;;;;;;6.25;5.00;;;;;;;12.46;100.00;100320.16;5255758;28;20025;-69
2021/10/30 02:25:28;;;;;;;7.00;5.55;;;;;;;12.48;100.00;100313.78;5257855;28;20443;-68
2021/10/30 02:27:59;;;;;;;6.43;5.10;;;;;;;12.51;100.00;100307.41;5258874;28;20025;-68
2021/10/30 02:30:31;;;;;;;6.60;5.55;;;;;;;12.48;100.00;100300.66;5263569;28;20111;-68
2021/10/30 02:33:02;;;;;;;8.52;5.43;;;;;;;12.51;100.00;100296.91;5258914;28;20082;-69
2021/10/30 02:35:34;;;;;;;7.47;5.78;;;;;;;12.56;100.00;100292.81;5256856;28;20047;-69
2021/10/30 02:38:05;;;;;;;6.40;5.53;;;;;;;12.58;100.00;100285.59;5262490;28;20025;-69
2021/10/30 02:40:37;;;;;;;7.47;5.60;;;;;;;12.64;100.00;100284.13;5259427;28;20021;-69
2021/10/30 02:43:08;;;;;;;6.45;5.25;;;;;;;12.62;100.00;100286.13;5258163;28;20215;-68
2021/10/30 02:45:39;;;;;;;7.72;5.95;;;;;;;12.67;100.00;100289.09;5258453;28;20094;-67
2021/10/30 02:48:10;;;;;;;6.82;6.13;;;;;;;12.63;100.00;100291.19;5258699;28;20155;-69
2021/10/30 02:50:42;;;;;;;7.82;5.57;;;;;;;12.64;100.00;100284.13;5258562;28;20048;-68
2021/10/30 02:53:13;;;;;;;7.57;6.32;;;;;;;12.63;100.00;100267.56;5258293;28;20021;-69
2021/10/30 02:55:44;;;;;;;9.15;6.88;;;;;;;12.67;100.00;100262.81;5258283;28;20051;-69
2021/10/30 02:58:15;;;;;;;7.55;5.93;;;;;;;12.69;100.00;100254.75;5257154;28;20028;-67
2021/10/30 03:00:47;;;;;;;8.32;6.00;;;;;;;12.69;100.00;100255.59;5257241;28;20029;-69
2021/10/30 03:03:18;;;;;;;7.70;5.75;;;;;;;12.72;100.00;100254.44;5258716;28;20482;-69
2021/10/30 03:05:49;;;;;;;7.18;6.43;;;;;;;12.72;100.00;100247.38;5259943;28;20438;-68
2021/10/30 03:08:20;;;;;;;6.28;5.68;;;;;;;12.72;100.00;100249.19;5264619;28;20497;-68
2021/10/30 03:10:52;;;;;;;8.93;6.05;;;;;;;12.71;100.00;100252.78;5261995;28;20528;-68
2021/10/30 03:13:23;;;;;;;8.55;6.05;;;;;;;12.74;100.00;100249.84;5268411;28;20031;-68
2021/10/30 03:15:55;;;;;;;8.68;6.70;;;;;;;12.75;100.00;100249.69;5264469;28;20017;-68
2021/10/30 03:18:26;;;;;;;7.82;6.10;;;;;;;12.78;100.00;100249.38;5260795;28;20115;-68
2021/10/30 03:20:57;;;;;;;8.88;6.72;;;;;;;12.76;100.00;100246.06;5266446;28;20028;-68
2021/10/30 03:23:29;;;;;;;7.78;6.28;;;;;;;12.76;100.00;100247.88;5267477;28;20021;-69
2021/10/30 03:26:00;;;;;;;9.52;6.55;;;;;;;12.79;100.00;100237.88;5258956;28;20029;-68
2021/10/30 03:28:31;;;;;;;8.05;6.93;;;;;;;12.83;100.00;100225.22;5262661;28;20032;-68
2021/10/30 03:31:03;;;;;;;8.30;6.68;;;;;;;12.82;100.00;100223.59;5265267;28;20125;-68
2021/10/30 03:33:34;;;;;;;10.43;6.68;;;;;;;12.86;100.00;100217.03;5259580;28;20029;-68
2021/10/30 03:36:05;;;;;;;8.15;6.82;;;;;;;12.84;100.00;100206.69;5260682;28;20024;-68
2021/10/30 03:38:37;;;;;;;9.25;7.28;;;;;;;12.85;100.00;100212.78;5260066;28;20417;-68
2021/10/30 03:41:08;;;;;;;7.95;6.72;;;;;;;12.84;100.00;100200.59;5263118;28;20016;-69
2021/10/30 03:43:39;;;;;;;8.18;6.80;;;;;;;12.85;100.00;100199.63;5272964;28;20153;-68
2021/10/30 03:46:11;;;;;;;8.88;7.15;;;;;;;12.86;100.00;100188.94;5266384;28;20033;-69
2021/10/30 03:48:42;;;;;;;9.30;6.70;;;;;;;12.86;100.00;100199.44;5265760;28;20077;-68
2021/10/30 03:51:13;;;;;;;10.35;7.05;;;;;;;12.87;100.00;100187.13;5262873;28;20036;-68
2021/10/30 03:53:44;;;;;;;8.30;6.93;;;;;;;12.85;100.00;100175.97;5262075;28;20025;-68
2021/10/30 03:56:16;;;;;;;9.52;6.95;;;;;;;12.85;100.00;100171.53;5264304;28;20060;-68
2021/10/30 03:58:47;;;;;;;10.65;7.28;;;;;;;12.87;100.00;100174.81;5261606;28;20029;-68
2021/10/30 04:01:18;;;;;;;8.30;6.72;;;;;;;12.86;100.00;100178.41;5262824;28;20024;-68
2021/10/30 04:03:49;;;;;;;9.55;6.93;;;;;;;12.84;100.00;100183.03;5257808;28;20125;-69
2021/10/30 04:06:21;;;;;;;10.40;7.28;;;;;;;12.89;100.00;100177.28;5258423;28;20032;-68
2021/10/30 04:08:52;;;;;;;8.95;7.50;;;;;;;12.88;100.00;100186.16;5262173;28;20025;-68
2021/10/30 04:11:24;;;;;;;10.70;7.47;;;;;;;12.86;100.00;100178.41;5269076;28;20025;-68
2021/10/30 04:13:55;;;;;;;11.90;7.63;;;;;;;12.85;100.00;100181.22;5263504;28;20589;-68
2021/10/30 04:16:27;;;;;;;9.80;7.47;;;;;;;12.83;100.00;100176.09;5261911;28;20043;-69
2021/10/30 04:18:58;;;;;;;11.55;7.03;;;;;;;12.87;100.00;100181.88;5259389;28;20060;-68
2021/10/30 04:21:30;;;;;;;8.48;6.90;;;;;;;12.84;100.00;100185.66;5265587;28;20032;-68
2021/10/30 04:24:02;;;;;;;10.15;8.10;;;;;;;12.86;100.00;100185.50;5262780;28;20021;-68
2021/10/30 04:26:34;;;;;;;10.63;7.03;;;;;;;12.88;100.00;100191.41;5265132;28;20036;-68
2021/10/30 04:29:06;;;;;;;8.80;7.50;;;;;;;12.85;100.00;100187.28;5260060;28;20825;-68
2021/10/30 04:31:38;;;;;;;10.65;7.75;;;;;;;12.82;100.00;100186.78;5259906;28;20028;-68
2021/10/30 04:34:18;;;;;;;11.60;7.95;;;;;;;12.85;100.00;100192.56;5265321;28;20086;-68
2021/10/30 04:36:50;;;;;;;12.25;8.80;;;;;;;12.80;100.00;100186.94;5265475;28;20382;-68
2021/10/30 04:39:21;;;;;;;10.70;7.95;;;;;;;12.86;100.00;100178.41;5258826;28;20474;-69
2021/10/30 04:41:53;;;;;;;11.48;7.90;;;;;;;12.83;100.00;100185.81;5259823;28;20115;-68
2021/10/30 04:44:24;;;;;;;8.88;7.63;;;;;;;12.84;100.00;100176.94;5267793;28;20028;-69
2021/10/30 04:46:55;;;;;;;10.40;8.10;;;;;;;12.82;100.00;100173.66;5262609;28;20036;-68
2021/10/30 04:49:27;;;;;;;9.93;8.13;;;;;;;12.83;100.00;100164.78;5262587;28;20028;-68
2021/10/30 04:51:58;;;;;;;9.70;7.90;;;;;;;12.80;100.00;100157.19;5257767;28;20056;-68
2021/10/30 04:54:29;;;;;;;10.75;8.05;;;;;;;12.81;100.00;100159.69;5265300;28;20039;-68
2021/10/30 04:57:01;;;;;;;10.23;7.68;;;;;;;12.82;100.00;100156.06;5260582;28;20028;-68
2021/10/30 04:59:32;;;;;;;10.05;7.25;;;;;;;12.76;100.00;100146.19;5264038;28;20039;-69
2021/10/30 05:02:04;;;;;;;11.18;7.88;;;;;;;12.80;100.00;100147.50;5263662;28;20103;-68
2021/10/30 05:04:35;;;;;;;9.23;7.50;;;;;;;12.77;100.00;100141.78;5258884;28;20036;-69
2021/10/30 05:07:07;;;;;;;12.38;7.55;;;;;;;12.79;100.00;100139.78;5257537;28;20361;-68
2021/10/30 05:09:38;;;;;;;9.60;6.63;;;;;;;12.79;100.00;100145.88;5260939;28;20024;-68
2021/10/30 05:12:10;;;;;;;8.38;6.80;;;;;;;12.77;100.00;100131.25;5261194;28;20033;-69
2021/10/30 05:14:41;;;;;;;12.57;7.38;;;;;;;12.74;100.00;100126.31;5262304;28;20025;-69
2021/10/30 05:17:12;;;;;;;11.02;7.30;;;;;;;12.72;100.00;100131.72;5263218;28;20052;-68
2021/10/30 05:19:43;;;;;;;9.68;6.90;;;;;;;12.73;100.00;100125.50;5258831;28;20024;-68
2021/10/30 05:22:15;;;;;;;8.43;6.35;;;;;;;12.72;100.00;100108.06;5264051;28;20060;-68
2021/10/30 05:24:46;;;;;;;8.45;6.70;;;;;;;12.67;100.00;100099.84;5265857;28;20110;-69
2021/10/30 05:27:17;;;;;;;8.13;6.53;;;;;;;12.69;100.00;100103.16;5257314;28;20489;-68
2021/10/30 05:29:49;;;;;;;10.55;6.95;;;;;;;12.68;100.00;100095.41;5260067;28;20040;-69
2021/10/30 05:32:20;;;;;;;9.75;6.95;;;;;;;12.66;100.00;100096.41;5260366;28;20029;-69
2021/10/30 05:34:52;;;;;;;8.32;6.80;;;;;;;12.64;100.00;100085.22;5265115;28;20648;-69
2021/10/30 05:37:23;;;;;;;10.98;7.20;;;;;;;12.60;100.00;100083.91;5258868;28;20028;-69
2021/10/30 05:39:55;;;;;;;13.18;7.80;;;;;;;12.60;100.00;100085.72;5258963;28;20542;-69
2021/10/30 05:42:26;;;;;;;9.90;6.90;;;;;;;12.60;100.00;100083.09;5258921;28;20028;-69
2021/10/30 05:44:58;;;;;;;12.57;7.45;;;;;;;12.59;100.00;100089.34;5259043;28;20971;-70
2021/10/30 05:47:31;;;;;;;8.38;6.15;;;;;;;12.62;100.00;100074.06;5262736;28;20016;-69
2021/10/30 05:50:04;;;;;;;9.93;7.43;;;;;;;12.60;100.00;100072.59;5257055;28;20036;-69
2021/10/30 05:52:35;;;;;;;8.95;6.85;;;;;;;12.61;100.00;100084.72;5259148;28;20782;-69
2021/10/30 05:55:07;;;;;;;11.60;7.13;;;;;;;12.60;100.00;100077.84;5259475;28;20032;-69
2021/10/30 05:57:39;;;;;;;10.57;6.85;;;;;;;12.57;100.00;100081.59;5254031;28;20075;-69
2021/10/30 06:00:11;;;;;;;10.23;7.50;;;;;;;12.55;100.00;100085.41;5261053;28;20028;-69
2021/10/30 06:02:42;;;;;;;9.25;7.30;;;;;;;12.53;100.00;100084.72;5263019;28;20020;-69
2021/10/30 06:05:14;;;;;;;8.50;6.93;;;;;;;12.58;100.00;100085.91;5268567;28;20115;-69
2021/10/30 06:07:45;;;;;;;8.73;7.18;;;;;;;12.54;100.00;100081.94;5266712;28;20119;-69
2021/10/30 06:10:16;;;;;;;9.13;7.22;;;;;;;12.55;100.00;100095.91;5264613;28;20036;-69
2021/10/30 06:12:48;;;;;;;11.25;6.80;;;;;;;12.55;100.00;100082.75;5261498;28;20382;-69
2021/10/30 06:15:20;;;;;;;12.50;6.80;;;;;;;12.54;100.00;100081.94;5265954;28;20020;-69
2021/10/30 06:17:51;;;;;;;10.02;7.50;;;;;;;12.51;100.00;100097.22;5262331;28;20494;-69
2021/10/30 06:20:22;;;;;;;8.25;6.65;;;;;;;12.51;100.00;100090.16;5263415;28;20069;-69
2021/10/30 06:22:53;;;;;;;9.82;7.60;;;;;;;12.54;100.00;100086.34;5259741;28;20033;-69
2021/10/30 06:25:25;;;;;;;7.78;6.63;;;;;;;12.53;100.00;100089.97;5266482;28;20016;-69
2021/10/30 06:27:57;;;;;;;9.50;7.28;;;;;;;12.53;100.00;100077.66;5263878;28;20032;-69
2021/10/30 06:30:28;;;;;;;9.85;7.18;;;;;;;12.52;100.00;100076.03;5268213;28;20037;-69
2021/10/30 06:33:00;;;;;;;11.20;7.05;;;;;;;12.54;100.00;100078.47;5267197;28;20395;-69
2021/10/30 06:35:31;;;;;;;9.80;6.47;;;;;;;12.50;100.00;100066.66;5268348;28;20436;-69
2021/10/30 06:38:02;;;;;;;9.68;7.20;;;;;;;12.49;100.00;100065.00;5267384;28;20029;-69
2021/10/30 06:40:34;;;;;;;9.60;7.50;;;;;;;12.50;100.00;100067.50;5268121;28;21042;-69
2021/10/30 06:43:05;;;;;;;9.85;6.80;;;;;;;12.51;100.00;100063.06;5266718;28;20033;-69
2021/10/30 06:45:36;;;;;;;9.55;7.65;;;;;;;12.50;100.00;100056.13;5269681;28;20384;-69
2021/10/30 06:48:08;;;;;;;10.82;7.55;;;;;;;12.47;100.00;100053.84;5263837;28;20027;-69
2021/10/30 06:50:39;;;;;;;10.10;6.97;;;;;;;12.45;100.00;100045.31;5264702;28;20063;-69
2021/10/30 06:53:11;;;;;;;10.15;7.35;;;;;;;12.49;100.00;100057.94;5268816;28;20017;-69
2021/10/30 06:55:43;;;;;;;8.82;6.60;;;;;;;12.52;100.00;100048.94;5263310;28;20060;-69
2021/10/30 06:58:16;;;;;;;9.47;6.70;;;;;;;12.49;100.00;100044.81;5263151;28;20474;-69
2021/10/30 07:00:48;;;;;;;11.52;7.28;;;;;;;12.47;100.00;100051.22;5264003;28;20154;-69
2021/10/30 07:03:20;;;;;;;9.70;7.70;;;;;;;12.49;100.00;100049.25;5263957;28;20491;-69
2021/10/30 07:05:51;;;;;;;9.68;6.38;;;;;;;12.49;100.00;100049.25;5262466;28;20047;-69
2021/10/30 07:08:23;;;;;;;8.90;7.45;;;;;;;12.49;100.00;100031.66;5271016;28;20031;-69
2021/10/30 07:10:54;;;;;;;8.82;7.13;;;;;;;12.47;100.00;100032.84;5264836;28;20486;-69
2021/10/30 07:13:25;;;;;;;10.70;7.93;;;;;;;12.48;100.00;100034.47;5264029;28;20640;-69
2021/10/30 07:15:56;;;;;;;9.30;7.50;;;;;;;12.48;100.00;100026.59;5266129;28;20025;-69
2021/10/30 07:18:28;;;;;;;10.63;7.20;;;;;;;12.51;100.00;100026.28;5267140;28;20127;-69
2021/10/30 07:20:59;;;;;;;8.45;7.35;;;;;;;12.54;100.00;100028.56;5263628;28;20036;-69
2021/10/30 07:23:31;;;;;;;8.70;7.15;;;;;;;12.58;100.00;100027.28;5265404;28;20033;-69
2021/10/30 07:26:03;;;;;;;11.48;7.95;;;;;;;12.54;100.00;100031.19;5263877;28;20051;-69
2021/10/30 07:28:34;;;;;;;10.18;7.32;;;;;;;12.57;100.00;100025.59;5267415;28;20668;-69
2021/10/30 07:31:05;;;;;;;9.30;7.60;;;;;;;12.57;100.00;100025.59;5267280;28;20028;-69
2021/10/30 07:33:36;;;;;;;8.57;7.25;;;;;;;12.60;100.00;100030.53;5263197;28;20025;-69
2021/10/30 07:36:08;;;;;;;7.70;6.63;;;;;;;12.59;100.00;100021.84;5266810;28;20174;-69
2021/10/30 07:38:39;;;;;;;8.75;6.45;;;;;;;12.58;100.00;100027.28;5268343;28;20047;-69
2021/10/30 07:41:11;;;;;;;8.43;6.63;;;;;;;12.60;100.00;100031.34;5269439;28;20028;-69
2021/10/30 07:43:42;;;;;;;9.32;6.88;;;;;;;12.61;100.00;100025.13;5265512;28;20424;-69
2021/10/30 07:46:14;;;;;;;8.98;6.38;;;;;;;12.60;100.00;100023.47;5262204;28;20044;-69
2021/10/30 07:48:45;;;;;;;7.18;5.75;;;;;;;12.62;100.00;100024.16;5265377;28;20037;-70
2021/10/30 07:51:16;;;;;;;8.48;6.43;;;;;;;12.60;100.00;100020.03;5290466;28;20049;-69
2021/10/30 07:53:48;;;;;;;9.02;6.15;;;;;;;12.63;100.00;100017.91;5266558;28;20052;-69
2021/10/30 07:56:19;;;;;;;8.18;5.85;;;;;;;12.61;100.00;100022.50;5263435;28;20083;-70
2021/10/30 07:58:51;;;;;;;9.80;6.45;;;;;;;12.68;100.00;100021.84;5264321;28;20434;-69
2021/10/30 08:01:22;;;;;;;8.25;6.30;;;;;;;12.70;100.00;100015.44;5265063;28;20036;-69
2021/10/30 08:03:53;;;;;;;8.63;6.35;;;;;;;12.61;100.00;100011.16;5270142;28;20078;-69
2021/10/30 08:06:25;;;;;;;9.43;6.03;;;;;;;12.71;100.00;100013.63;5265338;28;20032;-69
2021/10/30 08:08:56;;;;;;;7.30;5.80;;;;;;;12.69;100.00;100016.44;5260456;28;20028;-69
2021/10/30 08:11:27;;;;;;;7.60;6.25;;;;;;;12.69;100.00;100012.97;5264079;28;20025;-69
2021/10/30 08:13:58;;;;;;;9.00;5.95;;;;;;;12.71;100.00;100011.81;5263361;28;20033;-69
2021/10/30 08:16:30;;;;;;;6.55;5.30;;;;;;;12.74;100.00;100008.06;5262137;28;20032;-69
2021/10/30 08:19:01;;;;;;;6.47;5.28;;;;;;;12.76;100.00;100013.94;5254582;28;20043;-69
2021/10/30 08:21:33;;;;;;;9.05;5.50;;;;;;;12.76;100.00;100008.69;5254637;28;20033;-69
2021/10/30 08:24:05;;;;;;;7.65;5.13;;;;;;;12.74;100.00;100003.63;5256620;28;20050;-69
2021/10/30 08:26:36;;;;;;;8.75;5.78;;;;;;;12.75;100.00;100000.00;5255628;28;20626;-69
2021/10/30 08:29:08;;;;;;;8.23;5.30;;;;;;;12.68;100.00;99993.75;5261522;28;20086;-69
2021/10/30 08:31:39;;;;;;;7.65;5.22;;;;;;;12.73;100.00;99994.09;5255058;28;20037;-69
2021/10/30 08:34:11;;;;;;;7.13;5.28;;;;;;;12.78;100.00;99994.41;5255107;28;20722;-69
2021/10/30 08:36:43;;;;;;;7.85;5.15;;;;;;;12.81;100.00;99988.00;5255160;28;20035;-69
2021/10/30 08:39:15;;;;;;;7.32;5.03;;;;;;;12.84;100.00;99987.66;5258284;28;20029;-69
2021/10/30 08:41:47;;;;;;;8.85;5.28;;;;;;;12.86;100.00;99993.59;5259487;28;20127;-70
2021/10/30 08:44:20;;;;;;;6.65;4.93;;;;;;;12.88;100.00;99989.81;5258326;28;20019;-69
2021/10/30 08:46:52;;;;;;;7.15;5.22;;;;;;;12.87;100.00;99996.03;5260739;28;20036;-69
2021/10/30 08:49:24;;;;;;;6.70;4.70;;;;;;;12.89;100.00;99993.25;5258678;28;20060;-68
2021/10/30 08:51:55;;;;;;;6.80;5.20;;;;;;;12.87;100.00;99988.16;5257259;28;20334;-68
2021/10/30 08:54:27;;;;;;;7.35;5.03;;;;;;;12.91;100.00;99992.09;5257739;28;20151;-69
2021/10/30 08:56:58;;;;;;;5.88;4.40;;;;;;;12.93;100.00;99986.69;5260555;28;20017;-70
2021/10/30 08:59:45;;;;;;;8.52;4.65;;;;;;;13.07;100.00;99990.44;5257773;28;20506;-69
2021/10/30 09:02:34;;;;;;;5.88;4.35;;;;;;;13.13;100.00;99995.03;5259353;28;20502;-69
2021/10/30 09:05:24;;;;;;;6.45;4.90;;;;;;;13.15;100.00;99990.44;5259020;28;20036;-69
2021/10/30 09:07:56;;;;;;;7.05;4.60;;;;;;;13.01;100.00;99989.28;5257620;28;20038;-70
2021/10/30 09:10:32;;;;;;;6.15;4.97;;;;;;;13.04;100.00;99991.59;5257042;28;20031;-69
2021/10/30 09:13:06;;;;;;;7.85;4.53;;;;;;;13.04;100.00;99983.72;5261789;28;20028;-69
2021/10/30 09:15:49;;;;;;;8.48;5.03;;;;;;;13.03;100.00;99989.97;5255724;28;20530;-69
2021/10/30 09:18:23;;;;;;;;;;;;;;;13.43;100.00;99982.16;5259250;28;20482;-71
2021/10/30 09:20:57;;;;;;;5.72;4.50;;;;;;;13.08;100.00;99992.09;5259197;28;19971;-70
2021/10/30 09:23:36;;;;;;;6.63;4.55;;;;;;;13.08;100.00;99985.00;5255008;28;20064;-69
2021/10/30 09:26:14;;;;;;;6.05;4.68;;;;;;;13.13;100.00;99989.75;5254269;28;20047;-69
2021/10/30 09:28:52;;;;;;;8.05;4.85;;;;;;;13.12;100.00;99988.13;5255269;28;20017;-69
2021/10/30 09:31:25;;;;;;;7.00;4.43;;;;;;;13.11;100.00;99982.06;5254483;28;20040;-70
2021/10/30 09:34:05;;;;;;;5.32;3.95;;;;;;;13.22;100.00;99985.28;5258940;28;20033;-69
2021/10/30 09:36:39;;;;;;;5.90;4.68;;;;;;;13.13;100.00;99979.25;5264853;28;20048;-70
2021/10/30 09:39:17;;;;;;;5.38;4.35;;;;;;;13.19;100.00;99983.84;5258379;28;20608;-69
2021/10/30 09:41:52;;;;;;;6.55;4.45;;;;;;;13.15;100.00;99982.53;5267192;28;20054;-70
2021/10/30 09:44:25;;;;;;;7.47;4.78;;;;;;;13.19;100.00;99981.22;5264205;28;20049;-69
2021/10/30 09:47:00;;;;;;;10.20;4.50;;;;;;;13.22;100.00;99980.03;5272406;28;20039;-70
2021/10/30 09:49:37;;;;;;;6.72;4.70;;;;;;;13.29;100.00;99984.47;5262982;28;20043;-70
2021/10/30 09:52:12;;;;;;;6.03;4.35;;;;;;;13.25;100.00;99982.38;5258897;28;20044;-69
2021/10/30 09:54:47;;;;;;;7.63;4.45;;;;;;;13.26;100.00;99978.75;5263270;28;20029;-69
2021/10/30 09:57:30;;;;;;;6.03;3.97;;;;;;;13.37;100.00;99973.97;5258676;28;20109;-70
2021/10/30 10:00:04;;;;;;;11.45;4.38;;;;;;;13.29;100.00;99970.50;5295389;28;20044;-69
2021/10/30 10:02:36;;;;;;;4.93;3.78;;;;;;;13.30;100.00;99965.09;5261202;28;20078;-71
2021/10/30 10:05:08;;;;;;;7.25;4.15;;;;;;;13.29;100.00;99971.34;5257313;28;20029;-71
2021/10/30 10:07:40;;;;;;;5.78;4.25;;;;;;;13.33;100.00;99975.28;5260003;28;20016;-68
2021/10/30 10:10:11;;;;;;;4.75;3.95;;;;;;;13.35;100.00;99970.66;5257679;28;20040;-68
2021/10/30 10:12:43;;;;;;;7.07;4.18;;;;;;;13.31;100.00;99965.91;5261171;28;20022;-68
2021/10/30 10:15:15;;;;;;;6.28;4.03;;;;;;;13.34;100.00;99963.78;5260794;28;20127;-68
2021/10/30 10:17:49;;;;;;;4.93;3.92;;;;;;;13.31;100.00;99958.84;5261202;28;20397;-69
2021/10/30 10:20:21;;;;;;;6.43;3.65;;;;;;;13.29;100.00;99963.44;5259726;28;20040;-68
2021/10/30 10:22:52;;;;;;;5.68;3.63;;;;;;;13.37;100.00;99957.34;5258393;28;20370;-70
2021/10/30 10:25:35;;;;;;;7.00;4.30;;;;;;;13.44;100.00;99955.66;5262996;28;20028;-69
2021/10/30 10:28:18;;;;;;;4.90;3.88;;;;;;;13.42;100.00;99951.59;5258947;28;20560;-71
2021/10/30 10:31:23;;;;;;;6.25;4.03;;;;;;;13.46;100.00;99940.53;5258315;28;20496;-69
2021/10/30 10:34:12;;;;;;;6.88;4.32;;;;;;;13.49;100.00;99948.09;5253825;28;20363;-69
2021/10/30 10:36:45;;;;;;;5.63;4.10;;;;;;;13.36;100.00;99953.88;5262698;28;20028;-69
2021/10/30 10:39:21;;;;;;;5.80;3.47;;;;;;;13.42;100.00;99941.88;5257683;28;20032;-71
2021/10/30 10:41:54;;;;;;;7.95;4.18;;;;;;;13.42;100.00;99943.69;5264437;28;20036;-68
2021/10/30 10:44:25;;;;;;;4.80;3.70;;;;;;;13.44;100.00;99942.50;5266700;28;20112;-68
2021/10/30 10:46:59;;;;;;;4.83;3.67;;;;;;;13.53;100.00;99940.69;5260140;28;20119;-68
2021/10/30 10:49:48;;;;;;;;;;;;;;;13.95;100.00;99939.47;5256519;28;20302;-71
2021/10/30 10:52:22;;;;;;;6.03;3.88;;;;;;;13.63;100.00;99934.19;5253856;28;19924;-69
2021/10/30 10:54:58;;;;;;;4.18;3.47;;;;;;;13.72;100.00;99935.00;5257543;28;20033;-68
2021/10/30 10:57:32;;;;;;;5.65;3.70;;;;;;;13.69;100.00;99926.63;5259702;28;20037;-69
2021/10/30 11:00:15;;;;;;;6.05;3.85;;;;;;;13.80;100.00;99921.78;5264502;28;20025;-70
2021/10/30 11:02:46;;;;;;;5.90;3.17;;;;;;;13.79;100.00;99911.44;5265373;28;20039;-70
2021/10/30 11:05:21;;;;;;;3.90;3.37;;;;;;;13.81;100.00;99912.88;5258982;28;20036;-68
2021/10/30 11:07:52;;;;;;;6.65;3.35;;;;;;;13.81;100.00;99912.06;5261491;28;20274;-69
2021/10/30 11:10:26;;;;;;;5.25;3.28;;;;;;;13.85;100.00;99913.34;5261578;28;20039;-68
2021/10/30 11:13:00;;;;;;;4.55;3.47;;;;;;;13.94;100.00;99912.34;5259760;28;20041;-68
2021/10/30 11:15:43;;;;;;;4.65;3.10;;;;;;;14.02;100.00;99916.72;5247960;28;20143;-69
2021/10/30 11:21:41;;;;;;;3.92;3.05;;;;;;;14.05;100.00;99903.19;5240384;28;20041;-69
2021/10/30 11:24:22;;;;;;;4.97;3.00;;;;;;;14.07;100.00;99909.09;5262092;28;20062;-69
2021/10/30 11:27:05;;;;;;;3.55;2.78;;;;;;;13.98;100.00;99894.34;5259873;28;20275;-68
2021/10/30 11:29:49;;;;;;;3.28;2.38;;;;;;;14.12;100.00;99912.84;5259242;28;20025;-71
2021/10/30 11:32:22;;;;;;;5.30;2.45;;;;;;;13.99;100.00;99903.91;5257993;28;20045;-68
2021/10/30 11:34:58;;;;;;;4.28;2.70;;;;;;;14.11;100.00;99905.13;5260545;28;20116;-68
2021/10/30 11:37:39;;;;;;;5.38;2.72;;;;;;;14.17;100.00;99899.16;5260028;28;20032;-69
2021/10/30 11:40:11;;;;;;;3.92;2.70;;;;;;;14.16;100.00;99897.50;5260754;28;20167;-69
2021/10/30 11:42:43;;;;;;;3.97;2.50;;;;;;;14.24;100.00;99894.78;5260231;28;20036;-69
2021/10/30 11:45:14;;;;;;;4.33;2.57;;;;;;;14.31;100.00;99893.09;5258516;28;20027;-70
2021/10/30 11:47:53;;;;;;;3.90;2.25;;;;;;;14.36;100.00;99888.13;5265396;28;20064;-70